sensor_id;sensor_type;location;lat;lon;timestamp;temperature;humidity
35445;DHT22;21562;49.476;6.086;2023-05-07T00:02:02;16.60;99.90
35445;DHT22;21562;49.476;6.086;2023-05-07T00:04:29;16.30;99.90
35445;DHT22;21562;49.476;6.086;2023-05-07T00:07:01;16.20;99.90
35445;DHT22;21562;49.476;6.086;2023-05-07T00:09:27;16.20;99.90
35445;DHT22;21562;49.476;6.086;2023-05-07T00:11:52;16.00;99.90
35445;DHT22;21562;49.476;6.086;2023-05-07T00:14:18;15.90;99.90
35445;DHT22;21562;49.476;6.086;2023-05-07T00:16:44;15.90;99.90
35445;DHT22;21562;49.476;6.086;2023-05-07T00:19:09;15.50;99.90
35445;DHT22;21562;49.476;6.086;2023-05-07T00:21:35;15.40;99.90
35445;DHT22;21562;49.476;6.086;2023-05-07T00:24:01;15.40;99.90
35445;DHT22;21562;49.476;6.086;2023-05-07T00:26:26;15.50;99.90
35445;DHT22;21562;49.476;6.086;2023-05-07T00:28:52;15.70;99.90
35445;DHT22;21562;49.476;6.086;2023-05-07T00:31:17;15.70;99.90
35445;DHT22;21562;49.476;6.086;2023-05-07T00:33:43;15.60;99.90
35445;DHT22;21562;49.476;6.086;2023-05-07T00:36:09;15.60;99.90
35445;DHT22;21562;49.476;6.086;2023-05-07T00:38:34;15.40;99.90
35445;DHT22;21562;49.476;6.086;2023-05-07T00:41:00;15.30;99.90
35445;DHT22;21562;49.476;6.086;2023-05-07T00:43:27;15.30;99.90
35445;DHT22;21562;49.476;6.086;2023-05-07T00:45:53;15.10;99.90
35445;DHT22;21562;49.476;6.086;2023-05-07T00:48:19;14.80;99.90
35445;DHT22;21562;49.476;6.086;2023-05-07T00:50:45;14.90;99.90
35445;DHT22;21562;49.476;6.086;2023-05-07T00:53:11;15.20;99.90
35445;DHT22;21562;49.476;6.086;2023-05-07T00:55:38;15.50;99.90
35445;DHT22;21562;49.476;6.086;2023-05-07T00:58:04;15.70;99.90
35445;DHT22;21562;49.476;6.086;2023-05-07T01:00:29;15.80;99.90
35445;DHT22;21562;49.476;6.086;2023-05-07T01:02:55;15.80;99.90
35445;DHT22;21562;49.476;6.086;2023-05-07T01:05:22;15.50;99.90
35445;DHT22;21562;49.476;6.086;2023-05-07T01:07:48;15.60;99.90
35445;DHT22;21562;49.476;6.086;2023-05-07T01:10:15;15.70;99.90
35445;DHT22;21562;49.476;6.086;2023-05-07T01:12:42;15.80;99.90
35445;DHT22;21562;49.476;6.086;2023-05-07T01:15:09;15.90;99.90
35445;DHT22;21562;49.476;6.086;2023-05-07T01:17:39;15.90;99.90
35445;DHT22;21562;49.476;6.086;2023-05-07T01:20:07;15.60;99.90
35445;DHT22;21562;49.476;6.086;2023-05-07T01:22:33;15.40;99.90
35445;DHT22;21562;49.476;6.086;2023-05-07T01:25:00;15.20;99.90
35445;DHT22;21562;49.476;6.086;2023-05-07T01:27:27;15.20;99.90
35445;DHT22;21562;49.476;6.086;2023-05-07T01:29:52;15.30;99.90
35445;DHT22;21562;49.476;6.086;2023-05-07T01:32:24;15.30;99.90
35445;DHT22;21562;49.476;6.086;2023-05-07T01:34:52;15.30;99.90
35445;DHT22;21562;49.476;6.086;2023-05-07T01:37:19;15.30;99.90
35445;DHT22;21562;49.476;6.086;2023-05-07T01:39:45;15.20;99.90
35445;DHT22;21562;49.476;6.086;2023-05-07T01:42:12;15.50;99.90
35445;DHT22;21562;49.476;6.086;2023-05-07T01:44:38;15.70;99.90
35445;DHT22;21562;49.476;6.086;2023-05-07T01:47:04;15.90;99.90
35445;DHT22;21562;49.476;6.086;2023-05-07T01:49:30;16.00;99.90
35445;DHT22;21562;49.476;6.086;2023-05-07T01:51:55;16.10;99.90
35445;DHT22;21562;49.476;6.086;2023-05-07T01:54:26;16.20;99.90
35445;DHT22;21562;49.476;6.086;2023-05-07T01:56:53;16.30;99.90
35445;DHT22;21562;49.476;6.086;2023-05-07T01:59:19;15.80;99.90
35445;DHT22;21562;49.476;6.086;2023-05-07T02:01:44;15.50;99.90
35445;DHT22;21562;49.476;6.086;2023-05-07T02:04:10;15.20;99.90
35445;DHT22;21562;49.476;6.086;2023-05-07T02:06:36;14.90;99.90
35445;DHT22;21562;49.476;6.086;2023-05-07T02:09:01;15.10;99.90
35445;DHT22;21562;49.476;6.086;2023-05-07T02:11:27;15.30;99.90
35445;DHT22;21562;49.476;6.086;2023-05-07T02:13:53;15.50;99.90
35445;DHT22;21562;49.476;6.086;2023-05-07T02:16:18;15.60;99.90
35445;DHT22;21562;49.476;6.086;2023-05-07T02:18:45;15.60;99.90
35445;DHT22;21562;49.476;6.086;2023-05-07T02:21:11;15.50;99.90
35445;DHT22;21562;49.476;6.086;2023-05-07T02:23:36;15.40;99.90
35445;DHT22;21562;49.476;6.086;2023-05-07T02:26:03;15.50;99.90
35445;DHT22;21562;49.476;6.086;2023-05-07T02:28:28;15.60;99.90
35445;DHT22;21562;49.476;6.086;2023-05-07T02:30:54;15.60;99.90
35445;DHT22;21562;49.476;6.086;2023-05-07T02:33:20;15.30;99.90
35445;DHT22;21562;49.476;6.086;2023-05-07T02:35:45;15.20;99.90
35445;DHT22;21562;49.476;6.086;2023-05-07T02:38:11;15.40;99.90
35445;DHT22;21562;49.476;6.086;2023-05-07T02:40:37;15.50;99.90
35445;DHT22;21562;49.476;6.086;2023-05-07T02:43:05;15.70;99.90
35445;DHT22;21562;49.476;6.086;2023-05-07T02:45:32;15.80;99.90
35445;DHT22;21562;49.476;6.086;2023-05-07T02:47:58;15.80;99.90
35445;DHT22;21562;49.476;6.086;2023-05-07T02:50:23;15.20;99.90
35445;DHT22;21562;49.476;6.086;2023-05-07T02:52:49;15.00;99.90
35445;DHT22;21562;49.476;6.086;2023-05-07T02:55:15;15.00;99.90
35445;DHT22;21562;49.476;6.086;2023-05-07T02:57:41;15.20;99.90
35445;DHT22;21562;49.476;6.086;2023-05-07T03:00:11;15.30;99.90
35445;DHT22;21562;49.476;6.086;2023-05-07T03:02:37;15.40;99.90
35445;DHT22;21562;49.476;6.086;2023-05-07T03:05:03;15.50;99.90
35445;DHT22;21562;49.476;6.086;2023-05-07T03:07:29;15.60;99.90
35445;DHT22;21562;49.476;6.086;2023-05-07T03:09:54;15.50;99.90
35445;DHT22;21562;49.476;6.086;2023-05-07T03:12:20;15.50;99.90
35445;DHT22;21562;49.476;6.086;2023-05-07T03:14:46;15.20;99.90
35445;DHT22;21562;49.476;6.086;2023-05-07T03:17:11;14.80;99.90
35445;DHT22;21562;49.476;6.086;2023-05-07T03:19:37;14.80;99.90
35445;DHT22;21562;49.476;6.086;2023-05-07T03:22:03;15.00;99.90
35445;DHT22;21562;49.476;6.086;2023-05-07T03:24:28;15.20;99.90
35445;DHT22;21562;49.476;6.086;2023-05-07T03:26:54;15.30;99.90
35445;DHT22;21562;49.476;6.086;2023-05-07T03:29:19;15.40;99.90
35445;DHT22;21562;49.476;6.086;2023-05-07T03:31:45;15.10;99.90
35445;DHT22;21562;49.476;6.086;2023-05-07T03:34:11;14.70;99.90
35445;DHT22;21562;49.476;6.086;2023-05-07T03:36:37;14.50;99.90
35445;DHT22;21562;49.476;6.086;2023-05-07T03:39:02;14.60;99.90
35445;DHT22;21562;49.476;6.086;2023-05-07T03:41:28;14.80;99.90
35445;DHT22;21562;49.476;6.086;2023-05-07T03:43:54;15.00;99.90
35445;DHT22;21562;49.476;6.086;2023-05-07T03:46:20;15.20;99.90
35445;DHT22;21562;49.476;6.086;2023-05-07T03:48:46;15.10;99.90
35445;DHT22;21562;49.476;6.086;2023-05-07T03:51:11;15.10;99.90
35445;DHT22;21562;49.476;6.086;2023-05-07T03:53:37;15.10;99.90
35445;DHT22;21562;49.476;6.086;2023-05-07T03:56:03;14.80;99.90
35445;DHT22;21562;49.476;6.086;2023-05-07T03:58:28;14.30;99.90
35445;DHT22;21562;49.476;6.086;2023-05-07T04:00:54;14.40;99.90
35445;DHT22;21562;49.476;6.086;2023-05-07T04:03:20;14.50;99.90
35445;DHT22;21562;49.476;6.086;2023-05-07T04:05:45;14.60;99.90
35445;DHT22;21562;49.476;6.086;2023-05-07T04:08:11;14.80;99.90
35445;DHT22;21562;49.476;6.086;2023-05-07T04:10:37;14.70;99.90
35445;DHT22;21562;49.476;6.086;2023-05-07T04:13:02;14.50;99.90
35445;DHT22;21562;49.476;6.086;2023-05-07T04:15:28;14.10;99.90
35445;DHT22;21562;49.476;6.086;2023-05-07T04:17:53;14.10;99.90
35445;DHT22;21562;49.476;6.086;2023-05-07T04:20:19;14.20;99.90
35445;DHT22;21562;49.476;6.086;2023-05-07T04:22:45;14.30;99.90
35445;DHT22;21562;49.476;6.086;2023-05-07T04:25:10;14.40;99.90
35445;DHT22;21562;49.476;6.086;2023-05-07T04:27:36;14.20;99.90
35445;DHT22;21562;49.476;6.086;2023-05-07T04:30:03;13.90;99.90
35445;DHT22;21562;49.476;6.086;2023-05-07T04:32:29;14.00;99.90
35445;DHT22;21562;49.476;6.086;2023-05-07T04:34:56;14.20;99.90
35445;DHT22;21562;49.476;6.086;2023-05-07T04:37:21;14.40;99.90
35445;DHT22;21562;49.476;6.086;2023-05-07T04:39:47;14.60;99.90
35445;DHT22;21562;49.476;6.086;2023-05-07T04:42:16;14.60;99.90
35445;DHT22;21562;49.476;6.086;2023-05-07T04:44:44;14.50;99.90
35445;DHT22;21562;49.476;6.086;2023-05-07T04:47:10;14.50;99.90
35445;DHT22;21562;49.476;6.086;2023-05-07T04:49:37;14.70;99.90
35445;DHT22;21562;49.476;6.086;2023-05-07T04:52:03;14.80;99.90
35445;DHT22;21562;49.476;6.086;2023-05-07T04:54:29;14.80;99.90
35445;DHT22;21562;49.476;6.086;2023-05-07T04:56:55;14.90;99.90
35445;DHT22;21562;49.476;6.086;2023-05-07T04:59:20;15.10;99.90
35445;DHT22;21562;49.476;6.086;2023-05-07T05:01:46;15.10;99.90
35445;DHT22;21562;49.476;6.086;2023-05-07T05:04:12;15.20;99.90
35445;DHT22;21562;49.476;6.086;2023-05-07T05:06:38;15.10;99.90
35445;DHT22;21562;49.476;6.086;2023-05-07T05:09:04;14.70;99.90
35445;DHT22;21562;49.476;6.086;2023-05-07T05:11:30;14.50;99.90
35445;DHT22;21562;49.476;6.086;2023-05-07T05:13:56;14.40;99.90
35445;DHT22;21562;49.476;6.086;2023-05-07T05:16:22;14.50;99.90
35445;DHT22;21562;49.476;6.086;2023-05-07T05:18:47;14.70;99.90
35445;DHT22;21562;49.476;6.086;2023-05-07T05:21:13;15.00;99.90
35445;DHT22;21562;49.476;6.086;2023-05-07T05:23:38;15.10;99.90
35445;DHT22;21562;49.476;6.086;2023-05-07T05:26:04;14.90;99.90
35445;DHT22;21562;49.476;6.086;2023-05-07T05:28:30;14.70;99.90
35445;DHT22;21562;49.476;6.086;2023-05-07T05:30:55;14.30;99.90
35445;DHT22;21562;49.476;6.086;2023-05-07T05:33:21;14.30;99.90
35445;DHT22;21562;49.476;6.086;2023-05-07T05:35:47;14.60;99.90
35445;DHT22;21562;49.476;6.086;2023-05-07T05:38:12;14.80;99.90
35445;DHT22;21562;49.476;6.086;2023-05-07T05:40:38;15.00;99.90
35445;DHT22;21562;49.476;6.086;2023-05-07T05:43:04;15.20;99.90
35445;DHT22;21562;49.476;6.086;2023-05-07T05:45:29;15.30;99.90
35445;DHT22;21562;49.476;6.086;2023-05-07T05:47:56;15.50;99.90
35445;DHT22;21562;49.476;6.086;2023-05-07T05:50:22;15.60;99.90
35445;DHT22;21562;49.476;6.086;2023-05-07T05:52:47;15.60;99.90
35445;DHT22;21562;49.476;6.086;2023-05-07T05:55:13;15.50;99.90
35445;DHT22;21562;49.476;6.086;2023-05-07T05:57:39;15.40;99.90
35445;DHT22;21562;49.476;6.086;2023-05-07T06:00:06;15.20;99.90
35445;DHT22;21562;49.476;6.086;2023-05-07T06:02:32;15.20;99.90
35445;DHT22;21562;49.476;6.086;2023-05-07T06:04:57;15.30;99.90
35445;DHT22;21562;49.476;6.086;2023-05-07T06:07:23;15.50;99.90
35445;DHT22;21562;49.476;6.086;2023-05-07T06:09:48;15.60;99.90
35445;DHT22;21562;49.476;6.086;2023-05-07T06:12:14;15.70;99.90
35445;DHT22;21562;49.476;6.086;2023-05-07T06:14:40;15.80;99.90
35445;DHT22;21562;49.476;6.086;2023-05-07T06:17:07;15.70;99.90
35445;DHT22;21562;49.476;6.086;2023-05-07T06:19:33;15.70;99.90
35445;DHT22;21562;49.476;6.086;2023-05-07T06:21:58;15.80;99.90
35445;DHT22;21562;49.476;6.086;2023-05-07T06:24:26;16.00;99.90
35445;DHT22;21562;49.476;6.086;2023-05-07T06:26:52;16.20;99.90
35445;DHT22;21562;49.476;6.086;2023-05-07T06:29:18;16.30;99.90
35445;DHT22;21562;49.476;6.086;2023-05-07T06:31:43;16.40;99.90
35445;DHT22;21562;49.476;6.086;2023-05-07T06:34:09;16.60;99.90
35445;DHT22;21562;49.476;6.086;2023-05-07T06:36:35;16.70;99.90
35445;DHT22;21562;49.476;6.086;2023-05-07T06:39:01;16.90;99.90
35445;DHT22;21562;49.476;6.086;2023-05-07T06:41:26;17.10;99.90
35445;DHT22;21562;49.476;6.086;2023-05-07T06:43:52;17.10;99.90
35445;DHT22;21562;49.476;6.086;2023-05-07T06:46:17;17.20;99.90
35445;DHT22;21562;49.476;6.086;2023-05-07T06:48:43;17.30;99.90
35445;DHT22;21562;49.476;6.086;2023-05-07T06:51:09;17.30;99.90
35445;DHT22;21562;49.476;6.086;2023-05-07T06:53:35;17.20;99.90
35445;DHT22;21562;49.476;6.086;2023-05-07T06:56:01;17.20;99.90
35445;DHT22;21562;49.476;6.086;2023-05-07T06:58:26;17.30;99.90
35445;DHT22;21562;49.476;6.086;2023-05-07T07:00:52;17.30;99.90
35445;DHT22;21562;49.476;6.086;2023-05-07T07:03:17;17.30;99.90
35445;DHT22;21562;49.476;6.086;2023-05-07T07:05:43;17.50;99.90
35445;DHT22;21562;49.476;6.086;2023-05-07T07:08:10;17.60;99.90
35445;DHT22;21562;49.476;6.086;2023-05-07T07:10:35;17.80;99.90
35445;DHT22;21562;49.476;6.086;2023-05-07T07:13:01;17.80;99.90
35445;DHT22;21562;49.476;6.086;2023-05-07T07:15:27;17.70;99.90
35445;DHT22;21562;49.476;6.086;2023-05-07T07:17:52;17.60;99.90
35445;DHT22;21562;49.476;6.086;2023-05-07T07:20:18;17.70;99.90
35445;DHT22;21562;49.476;6.086;2023-05-07T07:22:44;18.00;99.90
35445;DHT22;21562;49.476;6.086;2023-05-07T07:25:09;18.00;99.90
35445;DHT22;21562;49.476;6.086;2023-05-07T07:27:36;17.80;99.90
35445;DHT22;21562;49.476;6.086;2023-05-07T07:30:02;17.50;99.90
35445;DHT22;21562;49.476;6.086;2023-05-07T07:32:28;17.70;99.90
35445;DHT22;21562;49.476;6.086;2023-05-07T07:34:54;17.70;99.90
35445;DHT22;21562;49.476;6.086;2023-05-07T07:37:20;17.70;99.90
35445;DHT22;21562;49.476;6.086;2023-05-07T07:39:45;17.80;99.90
35445;DHT22;21562;49.476;6.086;2023-05-07T07:42:11;18.30;99.90
35445;DHT22;21562;49.476;6.086;2023-05-07T07:44:36;18.60;99.90
35445;DHT22;21562;49.476;6.086;2023-05-07T07:47:02;19.00;99.90
35445;DHT22;21562;49.476;6.086;2023-05-07T07:49:28;19.60;99.90
35445;DHT22;21562;49.476;6.086;2023-05-07T07:51:53;19.90;99.90
35445;DHT22;21562;49.476;6.086;2023-05-07T07:54:19;20.10;99.90
35445;DHT22;21562;49.476;6.086;2023-05-07T07:56:45;19.60;99.90
35445;DHT22;21562;49.476;6.086;2023-05-07T07:59:10;19.80;99.90
35445;DHT22;21562;49.476;6.086;2023-05-07T08:01:36;20.10;99.90
35445;DHT22;21562;49.476;6.086;2023-05-07T08:04:01;20.50;99.90
35445;DHT22;21562;49.476;6.086;2023-05-07T08:06:28;21.00;99.90
35445;DHT22;21562;49.476;6.086;2023-05-07T08:08:54;21.10;99.90
35445;DHT22;21562;49.476;6.086;2023-05-07T08:11:20;21.30;99.90
35445;DHT22;21562;49.476;6.086;2023-05-07T08:13:46;21.00;99.90
35445;DHT22;21562;49.476;6.086;2023-05-07T08:16:12;21.10;99.90
35445;DHT22;21562;49.476;6.086;2023-05-07T08:18:38;21.00;99.90
35445;DHT22;21562;49.476;6.086;2023-05-07T08:21:04;21.00;99.90
35445;DHT22;21562;49.476;6.086;2023-05-07T08:23:29;20.90;99.90
35445;DHT22;21562;49.476;6.086;2023-05-07T08:25:55;20.60;99.90
35445;DHT22;21562;49.476;6.086;2023-05-07T08:28:21;20.20;99.90
35445;DHT22;21562;49.476;6.086;2023-05-07T08:30:47;20.10;99.90
35445;DHT22;21562;49.476;6.086;2023-05-07T08:33:13;20.30;99.90
35445;DHT22;21562;49.476;6.086;2023-05-07T08:35:38;20.60;99.90
35445;DHT22;21562;49.476;6.086;2023-05-07T08:38:04;20.50;99.90
35445;DHT22;21562;49.476;6.086;2023-05-07T08:40:37;20.50;99.90
35445;DHT22;21562;49.476;6.086;2023-05-07T08:43:05;20.70;99.90
35445;DHT22;21562;49.476;6.086;2023-05-07T08:45:33;20.90;99.90
35445;DHT22;21562;49.476;6.086;2023-05-07T08:48:01;20.90;99.90
35445;DHT22;21562;49.476;6.086;2023-05-07T08:50:28;21.00;99.90
35445;DHT22;21562;49.476;6.086;2023-05-07T08:52:54;21.10;99.90
35445;DHT22;21562;49.476;6.086;2023-05-07T08:55:22;21.10;99.90
35445;DHT22;21562;49.476;6.086;2023-05-07T08:57:47;21.20;99.90
35445;DHT22;21562;49.476;6.086;2023-05-07T09:00:14;21.00;99.90
35445;DHT22;21562;49.476;6.086;2023-05-07T09:02:40;21.10;99.90
35445;DHT22;21562;49.476;6.086;2023-05-07T09:05:06;21.30;99.90
35445;DHT22;21562;49.476;6.086;2023-05-07T09:07:31;21.70;99.90
35445;DHT22;21562;49.476;6.086;2023-05-07T09:09:57;22.00;99.90
35445;DHT22;21562;49.476;6.086;2023-05-07T09:12:23;22.30;99.90
35445;DHT22;21562;49.476;6.086;2023-05-07T09:14:49;22.60;99.90
35445;DHT22;21562;49.476;6.086;2023-05-07T09:17:16;22.80;99.90
35445;DHT22;21562;49.476;6.086;2023-05-07T09:19:46;22.90;99.90
35445;DHT22;21562;49.476;6.086;2023-05-07T09:22:13;23.00;99.90
35445;DHT22;21562;49.476;6.086;2023-05-07T09:24:38;23.00;99.90
35445;DHT22;21562;49.476;6.086;2023-05-07T09:27:05;23.10;99.90
35445;DHT22;21562;49.476;6.086;2023-05-07T09:29:31;23.00;99.90
35445;DHT22;21562;49.476;6.086;2023-05-07T09:32:07;23.00;99.90
35445;DHT22;21562;49.476;6.086;2023-05-07T09:34:32;23.20;99.90
35445;DHT22;21562;49.476;6.086;2023-05-07T09:37:02;23.10;99.90
35445;DHT22;21562;49.476;6.086;2023-05-07T09:39:40;23.30;99.90
35445;DHT22;21562;49.476;6.086;2023-05-07T09:42:06;23.50;99.90
35445;DHT22;21562;49.476;6.086;2023-05-07T09:44:33;23.50;99.90
35445;DHT22;21562;49.476;6.086;2023-05-07T09:47:00;23.50;99.90
35445;DHT22;21562;49.476;6.086;2023-05-07T09:49:29;22.50;99.90
35445;DHT22;21562;49.476;6.086;2023-05-07T09:52:00;22.80;99.90
35445;DHT22;21562;49.476;6.086;2023-05-07T09:54:25;23.20;99.90
35445;DHT22;21562;49.476;6.086;2023-05-07T09:56:52;23.60;99.90
35445;DHT22;21562;49.476;6.086;2023-05-07T09:59:18;23.80;99.90
35445;DHT22;21562;49.476;6.086;2023-05-07T10:01:45;24.00;99.90
35445;DHT22;21562;49.476;6.086;2023-05-07T10:04:11;23.90;99.90
35445;DHT22;21562;49.476;6.086;2023-05-07T10:06:39;23.80;99.90
35445;DHT22;21562;49.476;6.086;2023-05-07T10:09:06;23.60;99.90
35445;DHT22;21562;49.476;6.086;2023-05-07T10:11:35;23.10;99.90
35445;DHT22;21562;49.476;6.086;2023-05-07T10:14:02;22.70;99.90
35445;DHT22;21562;49.476;6.086;2023-05-07T10:16:31;22.40;99.90
35445;DHT22;21562;49.476;6.086;2023-05-07T10:18:58;22.20;99.90
35445;DHT22;21562;49.476;6.086;2023-05-07T10:21:27;22.10;99.90
35445;DHT22;21562;49.476;6.086;2023-05-07T10:24:06;22.20;99.90
35445;DHT22;21562;49.476;6.086;2023-05-07T10:26:44;22.30;99.90
35445;DHT22;21562;49.476;6.086;2023-05-07T10:29:45;22.40;99.90
35445;DHT22;21562;49.476;6.086;2023-05-07T10:34:56;22.60;99.90
35445;DHT22;21562;49.476;6.086;2023-05-07T10:37:24;22.80;99.90
35445;DHT22;21562;49.476;6.086;2023-05-07T10:39:50;23.00;99.90
35445;DHT22;21562;49.476;6.086;2023-05-07T10:42:16;23.00;99.90
35445;DHT22;21562;49.476;6.086;2023-05-07T10:44:42;22.80;99.90
35445;DHT22;21562;49.476;6.086;2023-05-07T10:47:13;22.90;99.90
35445;DHT22;21562;49.476;6.086;2023-05-07T10:52:18;23.10;99.90
35445;DHT22;21562;49.476;6.086;2023-05-07T10:54:44;22.90;99.90
35445;DHT22;21562;49.476;6.086;2023-05-07T10:59:57;22.90;99.90
35445;DHT22;21562;49.476;6.086;2023-05-07T11:02:23;23.10;99.90
35445;DHT22;21562;49.476;6.086;2023-05-07T11:05:20;23.10;99.90
35445;DHT22;21562;49.476;6.086;2023-05-07T11:07:57;23.00;99.90
35445;DHT22;21562;49.476;6.086;2023-05-07T11:10:29;23.00;99.90
35445;DHT22;21562;49.476;6.086;2023-05-07T11:13:09;23.10;99.90
35445;DHT22;21562;49.476;6.086;2023-05-07T11:15:41;23.20;99.90
35445;DHT22;21562;49.476;6.086;2023-05-07T11:18:08;23.30;99.90
35445;DHT22;21562;49.476;6.086;2023-05-07T11:20:47;23.40;99.90
35445;DHT22;21562;49.476;6.086;2023-05-07T11:28:40;23.50;99.90
35445;DHT22;21562;49.476;6.086;2023-05-07T11:31:06;23.30;99.90
35445;DHT22;21562;49.476;6.086;2023-05-07T11:33:32;23.50;99.90
35445;DHT22;21562;49.476;6.086;2023-05-07T11:35:59;23.60;99.90
35445;DHT22;21562;49.476;6.086;2023-05-07T11:38:25;23.60;99.90
35445;DHT22;21562;49.476;6.086;2023-05-07T11:40:58;23.70;99.90
35445;DHT22;21562;49.476;6.086;2023-05-07T11:43:27;23.70;99.90
35445;DHT22;21562;49.476;6.086;2023-05-07T11:45:53;23.80;99.90
35445;DHT22;21562;49.476;6.086;2023-05-07T11:48:21;23.80;99.90
35445;DHT22;21562;49.476;6.086;2023-05-07T11:51:01;23.90;99.90
35445;DHT22;21562;49.476;6.086;2023-05-07T11:53:31;23.90;99.90
35445;DHT22;21562;49.476;6.086;2023-05-07T11:56:00;23.80;99.90
35445;DHT22;21562;49.476;6.086;2023-05-07T11:58:26;23.70;99.90
35445;DHT22;21562;49.476;6.086;2023-05-07T12:00:53;23.70;99.90
35445;DHT22;21562;49.476;6.086;2023-05-07T12:03:19;23.70;99.90
35445;DHT22;21562;49.476;6.086;2023-05-07T12:05:48;23.70;99.90
35445;DHT22;21562;49.476;6.086;2023-05-07T12:08:15;23.50;99.90
35445;DHT22;21562;49.476;6.086;2023-05-07T12:10:45;23.60;99.90
35445;DHT22;21562;49.476;6.086;2023-05-07T12:13:37;23.60;99.90
35445;DHT22;21562;49.476;6.086;2023-05-07T12:16:04;23.50;99.90
35445;DHT22;21562;49.476;6.086;2023-05-07T12:18:30;23.50;99.90
35445;DHT22;21562;49.476;6.086;2023-05-07T12:20:57;23.30;99.90
35445;DHT22;21562;49.476;6.086;2023-05-07T12:23:23;23.40;99.90
35445;DHT22;21562;49.476;6.086;2023-05-07T12:25:48;23.50;99.90
35445;DHT22;21562;49.476;6.086;2023-05-07T12:28:17;23.60;99.90
35445;DHT22;21562;49.476;6.086;2023-05-07T12:30:44;23.70;99.90
35445;DHT22;21562;49.476;6.086;2023-05-07T12:33:11;23.80;99.90
35445;DHT22;21562;49.476;6.086;2023-05-07T12:35:40;23.90;99.90
35445;DHT22;21562;49.476;6.086;2023-05-07T12:38:13;23.90;99.90
35445;DHT22;21562;49.476;6.086;2023-05-07T12:40:44;23.80;99.90
35445;DHT22;21562;49.476;6.086;2023-05-07T12:43:21;23.80;99.90
35445;DHT22;21562;49.476;6.086;2023-05-07T12:45:50;23.80;99.90
35445;DHT22;21562;49.476;6.086;2023-05-07T12:48:15;24.00;99.90
35445;DHT22;21562;49.476;6.086;2023-05-07T12:50:41;23.90;99.90
35445;DHT22;21562;49.476;6.086;2023-05-07T12:53:11;24.00;99.90
35445;DHT22;21562;49.476;6.086;2023-05-07T12:55:45;24.00;99.90
35445;DHT22;21562;49.476;6.086;2023-05-07T12:58:19;24.00;99.90
35445;DHT22;21562;49.476;6.086;2023-05-07T13:00:47;23.90;99.90
35445;DHT22;21562;49.476;6.086;2023-05-07T13:03:27;23.70;99.90
35445;DHT22;21562;49.476;6.086;2023-05-07T13:05:55;23.70;99.90
35445;DHT22;21562;49.476;6.086;2023-05-07T13:08:40;23.40;99.90
35445;DHT22;21562;49.476;6.086;2023-05-07T13:11:09;23.00;99.90
35445;DHT22;21562;49.476;6.086;2023-05-07T13:13:36;22.80;99.90
35445;DHT22;21562;49.476;6.086;2023-05-07T13:16:03;22.40;99.90
35445;DHT22;21562;49.476;6.086;2023-05-07T13:18:32;22.60;99.90
35445;DHT22;21562;49.476;6.086;2023-05-07T13:20:59;22.70;99.90
35445;DHT22;21562;49.476;6.086;2023-05-07T13:23:25;22.90;99.90
35445;DHT22;21562;49.476;6.086;2023-05-07T13:25:51;23.00;99.90
35445;DHT22;21562;49.476;6.086;2023-05-07T13:28:19;23.00;99.90
35445;DHT22;21562;49.476;6.086;2023-05-07T13:30:45;23.00;99.90
35445;DHT22;21562;49.476;6.086;2023-05-07T13:33:11;23.10;99.90
35445;DHT22;21562;49.476;6.086;2023-05-07T13:35:37;23.20;99.90
35445;DHT22;21562;49.476;6.086;2023-05-07T13:38:03;23.20;99.90
35445;DHT22;21562;49.476;6.086;2023-05-07T13:40:29;23.20;99.90
35445;DHT22;21562;49.476;6.086;2023-05-07T13:42:57;23.30;99.90
35445;DHT22;21562;49.476;6.086;2023-05-07T13:45:24;23.30;99.90
35445;DHT22;21562;49.476;6.086;2023-05-07T13:47:51;23.20;99.90
35445;DHT22;21562;49.476;6.086;2023-05-07T13:50:17;23.30;99.90
35445;DHT22;21562;49.476;6.086;2023-05-07T13:52:44;23.20;99.90
35445;DHT22;21562;49.476;6.086;2023-05-07T13:55:20;23.30;99.90
35445;DHT22;21562;49.476;6.086;2023-05-07T13:57:46;23.20;99.90
35445;DHT22;21562;49.476;6.086;2023-05-07T14:00:13;23.10;99.90
35445;DHT22;21562;49.476;6.086;2023-05-07T14:02:39;23.20;99.90
35445;DHT22;21562;49.476;6.086;2023-05-07T14:05:06;23.20;99.90
35445;DHT22;21562;49.476;6.086;2023-05-07T14:07:32;22.90;99.90
35445;DHT22;21562;49.476;6.086;2023-05-07T14:09:58;22.90;99.90
35445;DHT22;21562;49.476;6.086;2023-05-07T14:12:23;23.00;99.90
35445;DHT22;21562;49.476;6.086;2023-05-07T14:14:49;22.80;99.90
35445;DHT22;21562;49.476;6.086;2023-05-07T14:17:16;22.80;99.90
35445;DHT22;21562;49.476;6.086;2023-05-07T14:19:42;22.70;99.90
35445;DHT22;21562;49.476;6.086;2023-05-07T14:22:08;22.80;99.90
35445;DHT22;21562;49.476;6.086;2023-05-07T14:24:34;22.80;99.90
35445;DHT22;21562;49.476;6.086;2023-05-07T14:26:59;23.00;99.90
35445;DHT22;21562;49.476;6.086;2023-05-07T14:29:25;23.10;99.90
35445;DHT22;21562;49.476;6.086;2023-05-07T14:31:51;23.30;99.90
35445;DHT22;21562;49.476;6.086;2023-05-07T14:34:16;23.20;99.90
35445;DHT22;21562;49.476;6.086;2023-05-07T14:36:42;23.50;99.90
35445;DHT22;21562;49.476;6.086;2023-05-07T14:39:09;23.50;99.90
35445;DHT22;21562;49.476;6.086;2023-05-07T14:41:35;23.60;99.90
35445;DHT22;21562;49.476;6.086;2023-05-07T14:44:00;23.70;99.90
35445;DHT22;21562;49.476;6.086;2023-05-07T14:46:27;23.40;99.90
35445;DHT22;21562;49.476;6.086;2023-05-07T14:48:52;23.20;99.90
35445;DHT22;21562;49.476;6.086;2023-05-07T14:51:18;23.30;99.90
35445;DHT22;21562;49.476;6.086;2023-05-07T14:53:44;23.30;99.90
35445;DHT22;21562;49.476;6.086;2023-05-07T14:56:10;23.30;99.90
35445;DHT22;21562;49.476;6.086;2023-05-07T14:58:36;23.50;99.90
35445;DHT22;21562;49.476;6.086;2023-05-07T15:01:02;23.60;99.90
35445;DHT22;21562;49.476;6.086;2023-05-07T15:03:28;23.70;99.90
35445;DHT22;21562;49.476;6.086;2023-05-07T15:05:54;23.60;99.90
35445;DHT22;21562;49.476;6.086;2023-05-07T15:08:20;23.70;99.90
35445;DHT22;21562;49.476;6.086;2023-05-07T15:10:46;23.70;99.90
35445;DHT22;21562;49.476;6.086;2023-05-07T15:13:12;23.50;99.90
35445;DHT22;21562;49.476;6.086;2023-05-07T15:15:38;23.40;99.90
35445;DHT22;21562;49.476;6.086;2023-05-07T15:18:04;23.50;99.90
35445;DHT22;21562;49.476;6.086;2023-05-07T15:20:30;23.50;99.90
35445;DHT22;21562;49.476;6.086;2023-05-07T15:22:56;23.50;99.90
35445;DHT22;21562;49.476;6.086;2023-05-07T15:25:22;23.50;99.90
35445;DHT22;21562;49.476;6.086;2023-05-07T15:27:48;23.60;99.90
35445;DHT22;21562;49.476;6.086;2023-05-07T15:30:14;23.70;99.90
35445;DHT22;21562;49.476;6.086;2023-05-07T15:32:40;23.80;99.90
35445;DHT22;21562;49.476;6.086;2023-05-07T15:35:07;23.80;99.90
35445;DHT22;21562;49.476;6.086;2023-05-07T15:37:33;23.90;99.90
35445;DHT22;21562;49.476;6.086;2023-05-07T15:39:58;23.80;99.90
35445;DHT22;21562;49.476;6.086;2023-05-07T15:42:24;23.80;99.90